createdAt,value
2023-04-29T00:00:21.399Z,98.96
2023-04-29T00:02:49.174Z,99.60
2023-04-29T00:05:16.659Z,99.31
2023-04-29T00:07:44.578Z,99.18
2023-04-29T00:10:14.760Z,98.61
2023-04-29T00:12:42.589Z,97.81
2023-04-29T00:15:10.262Z,96.51
2023-04-29T00:17:37.927Z,96.92
2023-04-29T00:20:06.301Z,98.50
2023-04-29T00:22:33.576Z,96.72
2023-04-29T00:25:01.104Z,96.94
2023-04-29T00:27:28.359Z,97.20
2023-04-29T00:29:56.074Z,98.02
2023-04-29T00:32:23.965Z,97.14
2023-04-29T00:34:51.732Z,97.19
2023-04-29T00:37:19.003Z,97.25
2023-04-29T00:39:46.523Z,97.42
2023-04-29T00:42:13.842Z,96.07
2023-04-29T00:44:41.061Z,95.58
2023-04-29T00:47:11.484Z,97.58
2023-04-29T00:49:39.380Z,96.63
2023-04-29T00:52:09.636Z,97.32
2023-04-29T00:54:37.554Z,95.75
2023-04-29T00:57:06.720Z,96.30
2023-04-29T00:59:34.604Z,96.87
2023-04-29T01:02:03.166Z,96.22
2023-04-29T01:04:31.167Z,96.26
2023-04-29T01:07:01.121Z,96.34
2023-04-29T01:09:55.567Z,95.86
2023-04-29T01:13:01.824Z,96.30
2023-04-29T01:15:32.139Z,96.12
2023-04-29T01:18:21.067Z,97.16
2023-04-29T01:20:48.992Z,96.11
2023-04-29T01:23:16.204Z,97.61
2023-04-29T01:25:43.705Z,97.09
2023-04-29T01:28:35.855Z,97.68
2023-04-29T01:31:20.381Z,96.50
2023-04-29T01:34:23.536Z,94.83
2023-04-29T01:37:06.724Z,95.80
2023-04-29T01:39:52.456Z,94.79
2023-04-29T01:42:23.738Z,96.42
2023-04-29T01:44:54.601Z,96.05
2023-04-29T01:47:22.128Z,95.13
2023-04-29T01:49:49.996Z,94.75
2023-04-29T01:52:17.460Z,93.91
2023-04-29T01:54:46.146Z,93.03
2023-04-29T01:57:13.363Z,93.20
2023-04-29T01:59:42.035Z,93.90
2023-04-29T02:02:10.279Z,95.05
2023-04-29T02:04:38.593Z,94.66
2023-04-29T02:07:05.814Z,94.77
2023-04-29T02:09:33.036Z,94.30
2023-04-29T02:12:01.293Z,95.18
2023-04-29T02:14:31.679Z,94.95
2023-04-29T02:16:59.158Z,93.73
2023-04-29T02:19:26.791Z,94.63
2023-04-29T02:21:54.726Z,94.74
2023-04-29T02:24:22.128Z,93.84
2023-04-29T02:26:49.633Z,93.27
2023-04-29T02:29:17.435Z,92.54
2023-04-29T02:31:44.927Z,92.72
2023-04-29T02:34:12.440Z,93.09
2023-04-29T02:36:39.639Z,93.06
2023-04-29T02:39:07.146Z,91.18
2023-04-29T02:41:34.956Z,92.08
2023-04-29T02:44:02.219Z,91.67
2023-04-29T02:46:29.782Z,91.96
2023-04-29T02:48:57.390Z,88.48
2023-04-29T02:51:24.678Z,83.34
2023-04-29T02:53:52.096Z,81.02
2023-04-29T02:56:20.095Z,78.62
2023-04-29T02:58:47.337Z,78.05
2023-04-29T03:01:14.667Z,77.61
2023-04-29T03:03:42.415Z,75.20
2023-04-29T03:06:10.100Z,75.63
2023-04-29T03:08:37.295Z,75.02
2023-04-29T03:11:04.801Z,76.21
2023-04-29T03:13:32.135Z,73.26
2023-04-29T03:16:00.653Z,72.22
2023-04-29T03:18:28.272Z,71.61
2023-04-29T03:20:55.520Z,69.37
2023-04-29T03:23:22.783Z,68.81
2023-04-29T03:25:50.368Z,69.87
2023-04-29T03:28:17.901Z,69.03
2023-04-29T03:30:45.207Z,71.19
2023-04-29T03:33:12.826Z,72.83
2023-04-29T03:35:40.520Z,72.21
2023-04-29T03:38:10.154Z,74.33
2023-04-29T03:40:38.892Z,73.20
2023-04-29T03:43:07.963Z,74.17
2023-04-29T03:45:35.400Z,73.90
2023-04-29T03:48:03.680Z,73.47
2023-04-29T03:50:31.957Z,74.19
2023-04-29T03:52:59.196Z,76.93
2023-04-29T03:55:27.215Z,77.62
2023-04-29T03:57:54.454Z,77.20
2023-04-29T04:00:22.267Z,77.93
2023-04-29T04:02:50.715Z,77.26
2023-04-29T04:05:20.978Z,76.81
2023-04-29T04:07:49.014Z,77.10
2023-04-29T04:10:18.463Z,76.42
2023-04-29T04:12:47.210Z,75.49
2023-04-29T04:15:15.083Z,79.40
2023-04-29T04:17:42.845Z,75.20
2023-04-29T04:20:10.626Z,74.75
2023-04-29T04:22:38.188Z,78.22
2023-04-29T04:25:08.453Z,79.07
2023-04-29T04:27:35.830Z,79.69
2023-04-29T04:30:04.312Z,80.58
2023-04-29T04:32:32.338Z,80.01
2023-04-29T04:34:59.601Z,81.74
2023-04-29T04:37:27.079Z,81.52
2023-04-29T04:39:54.906Z,80.68
2023-04-29T04:42:23.367Z,76.42
2023-04-29T04:44:50.713Z,74.23
2023-04-29T04:47:19.449Z,73.58
2023-04-29T04:49:53.255Z,73.87
2023-04-29T04:52:22.712Z,74.08
2023-04-29T04:54:50.094Z,73.50
2023-04-29T04:57:17.728Z,72.49
2023-04-29T04:59:45.923Z,72.25
2023-04-29T05:02:13.221Z,74.51
2023-04-29T05:04:40.484Z,74.26
2023-04-29T05:07:09.014Z,74.24
2023-04-29T05:09:37.801Z,74.53
2023-04-29T05:12:05.146Z,74.98
2023-04-29T05:14:33.085Z,73.57
2023-04-29T05:17:00.629Z,73.15
2023-04-29T05:19:28.068Z,74.04
2023-04-29T05:21:55.642Z,71.64
2023-04-29T05:24:23.648Z,71.68
2023-04-29T05:26:52.027Z,70.81
2023-04-29T05:29:20.863Z,69.81
2023-04-29T05:31:50.416Z,70.03
2023-04-29T05:34:18.582Z,69.64
2023-04-29T05:36:46.634Z,70.92
2023-04-29T05:39:13.800Z,72.83
2023-04-29T05:41:41.326Z,69.99
2023-04-29T05:44:09.784Z,68.67
2023-04-29T05:46:37.731Z,67.88
2023-04-29T05:49:05.243Z,67.66
2023-04-29T05:51:32.856Z,67.41
2023-04-29T05:54:00.497Z,66.91
2023-04-29T05:56:27.953Z,67.46
2023-04-29T05:58:55.780Z,65.47
2023-04-29T06:01:23.655Z,66.33
2023-04-29T06:03:51.361Z,66.13
2023-04-29T06:06:21.530Z,64.83
2023-04-29T06:08:49.242Z,63.03
2023-04-29T06:11:16.977Z,63.52
2023-04-29T06:13:44.557Z,61.44
2023-04-29T06:16:12.237Z,61.05
2023-04-29T06:18:39.679Z,61.32
2023-04-29T06:21:06.983Z,60.77
2023-04-29T06:23:34.237Z,61.34
2023-04-29T06:26:02.527Z,60.18
2023-04-29T06:28:30.006Z,60.75
2023-04-29T06:30:57.547Z,60.08
2023-04-29T06:33:25.061Z,60.36
2023-04-29T06:35:52.290Z,60.28
2023-04-29T06:38:19.899Z,59.53
2023-04-29T06:40:47.604Z,59.97
2023-04-29T06:43:15.180Z,58.44
2023-04-29T06:45:46.879Z,58.68
2023-04-29T06:48:16.453Z,60.10
2023-04-29T06:50:51.446Z,60.26
2023-04-29T06:53:19.254Z,60.21
2023-04-29T06:55:46.647Z,61.72
2023-04-29T06:58:14.702Z,60.77
2023-04-29T07:00:49.683Z,60.20
2023-04-29T07:03:18.150Z,60.12
2023-04-29T07:05:46.023Z,58.84
2023-04-29T07:08:13.985Z,58.88
2023-04-29T07:10:44.089Z,57.39
2023-04-29T07:13:11.607Z,58.79
2023-04-29T07:15:38.756Z,58.16
2023-04-29T07:18:06.732Z,58.27
2023-04-29T07:20:36.897Z,58.11
2023-04-29T07:23:04.476Z,57.47
2023-04-29T07:25:32.132Z,57.16
2023-04-29T07:27:59.590Z,57.75
2023-04-29T07:30:26.916Z,57.54
2023-04-29T07:32:54.170Z,57.18
2023-04-29T07:35:22.464Z,56.71
2023-04-29T07:37:49.788Z,56.25
2023-04-29T07:40:17.154Z,56.97
2023-04-29T07:42:44.599Z,57.63
2023-04-29T07:45:13.858Z,55.76
2023-04-29T07:47:41.408Z,55.39
2023-04-29T07:50:09.238Z,54.85
2023-04-29T07:52:36.535Z,54.21
2023-04-29T07:55:03.924Z,53.96
2023-04-29T07:57:31.667Z,54.03
2023-04-29T07:59:58.941Z,53.75
2023-04-29T08:02:26.276Z,51.79
2023-04-29T08:04:56.156Z,50.63
2023-04-29T08:07:23.827Z,50.81
2023-04-29T08:09:51.720Z,51.40
2023-04-29T08:12:19.203Z,49.01
2023-04-29T08:14:46.440Z,50.53
2023-04-29T08:17:13.641Z,50.35
2023-04-29T08:19:41.390Z,49.58
2023-04-29T08:22:11.209Z,49.60
2023-04-29T08:24:38.429Z,48.60
2023-04-29T08:27:05.987Z,48.70
2023-04-29T08:29:33.241Z,48.07
2023-04-29T08:32:01.070Z,50.07
2023-04-29T08:34:28.636Z,50.04
2023-04-29T08:36:57.433Z,48.02
2023-04-29T08:39:25.348Z,48.87
2023-04-29T08:41:54.122Z,48.19
2023-04-29T08:44:21.690Z,47.32
2023-04-29T08:46:49.597Z,48.47
2023-04-29T08:49:17.124Z,47.26
2023-04-29T08:51:44.387Z,48.28
2023-04-29T08:54:11.940Z,47.77
2023-04-29T08:56:39.740Z,47.63
2023-04-29T08:59:08.266Z,48.22
2023-04-29T09:01:36.833Z,48.85
2023-04-29T09:04:42.558Z,47.83
2023-04-29T09:07:11.200Z,47.61
2023-04-29T09:09:40.321Z,47.69
2023-04-29T09:12:07.753Z,48.73
2023-04-29T09:14:36.362Z,47.25
2023-04-29T09:17:03.870Z,48.90
2023-04-29T09:19:32.920Z,47.64
2023-04-29T09:22:01.765Z,47.02
2023-04-29T09:24:30.395Z,46.96
2023-04-29T09:26:58.803Z,47.77
2023-04-29T09:29:25.975Z,47.84
2023-04-29T09:31:53.689Z,46.19
2023-04-29T09:34:38.512Z,46.02
2023-04-29T09:37:27.965Z,46.58
2023-04-29T09:39:55.299Z,45.76
2023-04-29T09:42:22.798Z,44.85
2023-04-29T09:44:50.122Z,43.58
2023-04-29T09:47:17.425Z,43.40
2023-04-29T09:49:49.966Z,45.01
2023-04-29T09:52:18.210Z,44.13
2023-04-29T09:54:45.879Z,42.89
2023-04-29T09:57:15.735Z,42.62
2023-04-29T09:59:43.606Z,41.47
2023-04-29T10:02:16.331Z,42.69
2023-04-29T10:04:57.645Z,40.94
2023-04-29T10:07:27.002Z,43.14
2023-04-29T10:09:55.124Z,44.00
2023-04-29T10:12:22.625Z,42.64
2023-04-29T10:15:04.414Z,43.85
2023-04-29T10:18:09.033Z,43.79
2023-04-29T10:20:37.848Z,43.98
2023-04-29T10:23:05.810Z,44.54
2023-04-29T10:25:33.943Z,43.96
2023-04-29T10:28:02.195Z,43.66
2023-04-29T10:30:30.853Z,45.79
2023-04-29T10:33:01.707Z,45.04
2023-04-29T10:35:29.152Z,46.09
2023-04-29T10:37:59.912Z,46.27
2023-04-29T10:40:48.902Z,45.10
2023-04-29T10:43:16.466Z,44.30
2023-04-29T10:45:43.749Z,44.69
2023-04-29T10:48:13.107Z,44.80
2023-04-29T10:50:42.549Z,44.11
2023-04-29T10:53:09.765Z,44.93
2023-04-29T10:55:40.590Z,43.62
2023-04-29T10:58:35.832Z,44.30
2023-04-29T11:01:03.808Z,44.32
2023-04-29T11:03:58.385Z,44.20
2023-04-29T11:06:26.929Z,43.12
2023-04-29T11:09:11.109Z,44.13
2023-04-29T11:11:58.234Z,44.70
2023-04-29T11:14:50.280Z,45.16
2023-04-29T11:17:23.450Z,44.08
2023-04-29T11:19:52.209Z,43.67
2023-04-29T11:22:19.497Z,43.77
2023-04-29T11:24:53.828Z,43.68
2023-04-29T11:27:25.582Z,43.51
2023-04-29T11:30:00.535Z,43.80
2023-04-29T11:32:33.478Z,42.78
2023-04-29T11:35:13.612Z,42.45
2023-04-29T11:37:42.567Z,41.29
2023-04-29T11:40:11.518Z,43.33
2023-04-29T11:42:49.109Z,40.33
2023-04-29T11:45:20.108Z,41.61
2023-04-29T11:47:48.377Z,43.25
2023-04-29T11:50:19.174Z,42.54
2023-04-29T11:52:47.838Z,40.82
2023-04-29T11:55:15.434Z,41.53
2023-04-29T11:57:42.566Z,42.45
2023-04-29T12:00:12.895Z,42.26
2023-04-29T12:02:44.791Z,43.11
2023-04-29T12:05:17.228Z,42.49
2023-04-29T12:07:45.321Z,41.81
2023-04-29T12:10:12.800Z,44.22
2023-04-29T12:12:46.751Z,42.86
2023-04-29T12:15:14.566Z,42.70
2023-04-29T12:17:42.735Z,43.11
2023-04-29T12:20:10.804Z,42.00
2023-04-29T12:22:38.791Z,44.58
2023-04-29T12:25:07.390Z,42.47
2023-04-29T12:27:36.161Z,43.58
2023-04-29T12:30:08.225Z,43.53
2023-04-29T12:32:36.817Z,42.96
2023-04-29T12:35:04.677Z,44.36
2023-04-29T12:37:32.016Z,42.62
2023-04-29T12:39:59.212Z,42.21
2023-04-29T12:42:33.233Z,42.42
2023-04-29T12:45:00.424Z,44.22
2023-04-29T12:47:36.956Z,42.55
2023-04-29T12:50:04.562Z,42.05
2023-04-29T12:52:32.020Z,42.43
2023-04-29T12:54:59.143Z,41.90
2023-04-29T12:57:28.385Z,42.63
2023-04-29T12:59:56.077Z,42.88
2023-04-29T13:02:23.346Z,42.06
2023-04-29T13:04:50.718Z,43.69
2023-04-29T13:07:18.885Z,43.14
2023-04-29T13:09:45.998Z,43.00
2023-04-29T13:12:13.338Z,45.48
2023-04-29T13:14:40.755Z,44.76
2023-04-29T13:17:07.978Z,41.99
2023-04-29T13:19:50.317Z,42.16
2023-04-29T13:22:18.780Z,42.36
2023-04-29T13:24:46.606Z,41.94
2023-04-29T13:27:13.817Z,42.92
2023-04-29T13:29:41.273Z,42.49
2023-04-29T13:32:08.905Z,41.90
2023-04-29T13:34:36.516Z,42.70
2023-04-29T13:37:03.936Z,43.34
2023-04-29T13:39:31.621Z,43.59
2023-04-29T13:41:59.665Z,44.83
2023-04-29T13:44:36.084Z,43.57
2023-04-29T13:47:18.133Z,42.66
2023-04-29T13:55:04.270Z,42.94
2023-04-29T13:58:36.438Z,42.58
2023-04-29T14:00:57.014Z,42.71
2023-04-29T14:03:14.737Z,43.85
2023-04-29T14:05:42.541Z,46.16
2023-04-29T14:08:09.841Z,45.82
2023-04-29T14:10:37.449Z,43.59
2023-04-29T14:13:05.230Z,44.19
2023-04-29T14:15:32.433Z,43.74
2023-04-29T14:18:02.761Z,44.18
2023-04-29T14:20:29.931Z,45.40
2023-04-29T14:22:57.021Z,43.94
2023-04-29T14:25:26.119Z,42.94
2023-04-29T14:27:53.830Z,43.88
2023-04-29T14:30:21.587Z,42.62
2023-04-29T14:32:49.210Z,42.81
2023-04-29T14:35:16.330Z,42.91
2023-04-29T14:37:43.442Z,43.37
2023-04-29T14:40:11.171Z,43.61
2023-04-29T14:42:38.323Z,42.57
2023-04-29T14:45:06.953Z,42.90
2023-04-29T14:47:34.410Z,43.14
2023-04-29T14:50:02.057Z,42.95
2023-04-29T14:52:29.222Z,43.67
2023-04-29T14:54:56.761Z,44.12
2023-04-29T14:57:23.975Z,43.72
2023-04-29T14:59:51.112Z,43.70
2023-04-29T15:02:18.557Z,43.71
2023-04-29T15:04:46.300Z,43.69
2023-04-29T15:07:13.867Z,44.57
2023-04-29T15:09:42.005Z,43.72
2023-04-29T15:12:09.637Z,44.79
2023-04-29T15:14:37.077Z,43.48
2023-04-29T15:17:04.590Z,43.63
2023-04-29T15:19:31.874Z,43.10
2023-04-29T15:21:59.046Z,43.46
2023-04-29T15:24:26.494Z,43.51
2023-04-29T15:26:53.788Z,43.74
2023-04-29T15:29:20.988Z,43.61
2023-04-29T15:31:48.621Z,41.91
2023-04-29T15:34:15.837Z,41.53
2023-04-29T15:36:42.994Z,42.56
2023-04-29T15:39:11.073Z,43.92
2023-04-29T15:41:39.049Z,43.95
2023-04-29T15:44:06.627Z,45.65
2023-04-29T15:46:34.345Z,45.08
2023-04-29T15:49:02.727Z,45.20
2023-04-29T15:51:29.917Z,44.85
2023-04-29T15:53:57.465Z,45.98
2023-04-29T15:56:25.540Z,44.93
2023-04-29T15:58:53.209Z,45.20
2023-04-29T16:01:21.224Z,46.34
2023-04-29T16:03:48.788Z,46.82
2023-04-29T16:06:16.800Z,47.35
2023-04-29T16:08:44.024Z,46.38
2023-04-29T16:11:12.035Z,46.52
2023-04-29T16:13:39.294Z,45.28
2023-04-29T16:16:06.744Z,46.24
2023-04-29T16:18:34.275Z,45.69
2023-04-29T16:21:01.526Z,45.88
2023-04-29T16:23:28.733Z,47.28
2023-04-29T16:25:56.250Z,46.90
2023-04-29T16:28:24.230Z,47.38
2023-04-29T16:30:52.266Z,45.99
2023-04-29T16:33:19.793Z,45.80
2023-04-29T16:35:47.047Z,46.79
2023-04-29T16:38:14.225Z,46.62
2023-04-29T16:40:41.766Z,45.93
2023-04-29T16:43:09.032Z,47.16
2023-04-29T16:45:36.422Z,47.46
2023-04-29T16:48:04.225Z,47.06
2023-04-29T16:50:31.939Z,47.80
2023-04-29T16:52:59.097Z,53.76
2023-04-29T16:55:26.768Z,55.69
2023-04-29T16:57:53.989Z,55.59
2023-04-29T17:00:21.302Z,57.06
2023-04-29T17:02:51.102Z,58.19
2023-04-29T17:05:21.621Z,58.00
2023-04-29T17:07:49.143Z,59.07
2023-04-29T17:10:16.365Z,58.34
2023-04-29T17:12:44.210Z,59.33
2023-04-29T17:15:12.606Z,59.28
2023-04-29T17:17:39.813Z,59.52
2023-04-29T17:20:07.628Z,59.82
2023-04-29T17:22:35.656Z,61.70
2023-04-29T17:25:03.062Z,61.45
2023-04-29T17:27:30.659Z,62.97
2023-04-29T17:29:58.211Z,62.93
2023-04-29T17:32:29.338Z,63.93
2023-04-29T17:34:57.603Z,63.98
2023-04-29T17:37:25.785Z,64.73
2023-04-29T17:39:53.113Z,66.05
2023-04-29T17:42:23.349Z,66.65
2023-04-29T17:44:50.824Z,67.44
2023-04-29T17:47:17.981Z,67.86
2023-04-29T17:49:45.221Z,68.40
2023-04-29T17:52:13.129Z,69.07
2023-04-29T17:54:41.019Z,68.85
2023-04-29T17:57:08.715Z,69.25
2023-04-29T17:59:36.178Z,69.62
2023-04-29T18:02:03.516Z,69.73
2023-04-29T18:04:30.937Z,69.83
2023-04-29T18:06:58.218Z,70.01
2023-04-29T18:09:26.512Z,70.89
2023-04-29T18:11:54.032Z,70.39
2023-04-29T18:14:21.476Z,70.46
2023-04-29T18:16:48.714Z,71.79
2023-04-29T18:19:16.196Z,71.76
2023-04-29T18:21:43.295Z,72.01
2023-04-29T18:24:11.312Z,72.86
2023-04-29T18:26:38.798Z,72.99
2023-04-29T18:29:06.220Z,73.50
2023-04-29T18:31:33.486Z,73.50
2023-04-29T18:34:00.915Z,72.89
2023-04-29T18:36:29.266Z,73.31
2023-04-29T18:38:56.898Z,73.41
2023-04-29T18:41:24.355Z,73.72
2023-04-29T18:43:51.627Z,73.64
2023-04-29T18:46:18.864Z,74.09
2023-04-29T18:48:46.296Z,74.70
2023-04-29T18:51:13.440Z,75.35
2023-04-29T18:53:40.559Z,75.92
2023-04-29T18:56:08.457Z,76.10
2023-04-29T18:58:36.099Z,76.57
2023-04-29T19:01:03.346Z,77.04
2023-04-29T19:03:31.548Z,76.90
2023-04-29T19:05:58.756Z,76.73
2023-04-29T19:08:26.269Z,76.46
2023-04-29T19:10:54.126Z,77.23
2023-04-29T19:13:21.331Z,77.82
2023-04-29T19:15:51.044Z,77.59
2023-04-29T19:18:20.188Z,77.91
2023-04-29T19:20:48.892Z,78.11
2023-04-29T19:23:16.191Z,78.14
2023-04-29T19:25:44.058Z,78.42
2023-04-29T19:28:11.155Z,78.33
2023-04-29T19:30:38.384Z,78.62
2023-04-29T19:33:06.188Z,78.69
2023-04-29T19:35:33.395Z,78.58
2023-04-29T19:38:00.495Z,79.02
2023-04-29T19:40:27.959Z,79.64
2023-04-29T19:42:55.224Z,80.08
2023-04-29T19:45:22.664Z,79.74
2023-04-29T19:47:50.150Z,80.14
2023-04-29T19:50:17.369Z,80.21
2023-04-29T19:52:44.519Z,79.93
2023-04-29T19:55:12.088Z,80.10
2023-04-29T19:57:39.178Z,79.93
2023-04-29T20:00:06.952Z,79.97
2023-04-29T20:02:34.833Z,79.61
2023-04-29T20:05:02.969Z,80.08
2023-04-29T20:07:30.261Z,80.72
2023-04-29T20:09:57.348Z,80.46
2023-04-29T20:12:24.753Z,80.23
2023-04-29T20:14:51.923Z,80.05
2023-04-29T20:17:19.105Z,79.82
2023-04-29T20:19:46.567Z,79.89
2023-04-29T20:22:13.778Z,79.79
2023-04-29T20:24:41.577Z,80.40
2023-04-29T20:27:09.040Z,79.99
2023-04-29T20:29:36.226Z,80.95
2023-04-29T20:32:04.550Z,81.42
2023-04-29T20:34:32.660Z,81.27
2023-04-29T20:36:59.759Z,81.28
2023-04-29T20:39:26.871Z,81.68
2023-04-29T20:41:56.384Z,81.84
2023-04-29T20:44:23.603Z,81.75
2023-04-29T20:46:53.009Z,81.35
2023-04-29T20:49:20.466Z,81.11
2023-04-29T20:51:49.252Z,81.01
2023-04-29T20:54:16.883Z,81.91
2023-04-29T20:56:44.394Z,82.10
2023-04-29T20:59:11.759Z,82.78
2023-04-29T21:01:38.965Z,83.10
2023-04-29T21:04:07.033Z,82.74
2023-04-29T21:06:34.223Z,82.09
2023-04-29T21:09:01.387Z,82.32
2023-04-29T21:11:28.792Z,82.52
2023-04-29T21:13:55.864Z,82.13
2023-04-29T21:16:23.131Z,82.54
2023-04-29T21:18:50.697Z,82.93
2023-04-29T21:21:17.844Z,82.62
2023-04-29T21:23:44.979Z,83.22
2023-04-29T21:26:14.948Z,82.69
2023-04-29T21:28:42.850Z,82.61
2023-04-29T21:31:15.296Z,82.17
2023-04-29T21:33:46.102Z,82.96
2023-04-29T21:36:13.804Z,82.92
2023-04-29T21:38:42.793Z,82.95
2023-04-29T21:41:26.517Z,82.67
2023-04-29T21:43:58.864Z,82.17
2023-04-29T21:46:30.932Z,82.27
2023-04-29T21:48:58.306Z,82.89
2023-04-29T21:51:26.458Z,83.20
2023-04-29T21:53:53.911Z,83.43
2023-04-29T21:56:22.711Z,83.74
2023-04-29T21:58:50.451Z,83.99
2023-04-29T22:01:40.547Z,84.18
2023-04-29T22:04:08.502Z,84.84
2023-04-29T22:06:36.294Z,84.67
2023-04-29T22:09:04.533Z,84.39
2023-04-29T22:11:32.572Z,84.39
2023-04-29T22:13:59.649Z,84.14
2023-04-29T22:16:26.920Z,84.41
2023-04-29T22:18:54.719Z,84.56
2023-04-29T22:21:21.862Z,85.08
2023-04-29T22:23:49.197Z,85.62
2023-04-29T22:26:16.659Z,84.82
2023-04-29T22:28:43.938Z,84.88
2023-04-29T22:31:11.252Z,84.99
2023-04-29T22:33:38.748Z,85.55
2023-04-29T22:36:06.373Z,85.39
2023-04-29T22:38:34.950Z,85.11
2023-04-29T22:41:02.459Z,85.22
2023-04-29T22:43:29.761Z,84.97
2023-04-29T22:45:57.120Z,84.52
2023-04-29T22:48:27.341Z,83.53
2023-04-29T22:50:57.091Z,82.81
2023-04-29T22:53:24.611Z,83.75
2023-04-29T22:55:55.926Z,83.92
2023-04-29T22:58:27.055Z,84.94
2023-04-29T23:00:57.071Z,83.99
2023-04-29T23:03:24.865Z,84.87
2023-04-29T23:05:54.640Z,85.40
2023-04-29T23:08:22.163Z,85.78
2023-04-29T23:10:49.870Z,85.43
2023-04-29T23:13:17.240Z,85.25
2023-04-29T23:15:45.381Z,84.54
2023-04-29T23:18:12.809Z,84.59
2023-04-29T23:20:40.028Z,84.80
2023-04-29T23:23:07.480Z,84.90
2023-04-29T23:25:34.802Z,85.26
2023-04-29T23:28:01.921Z,85.08
2023-04-29T23:30:29.401Z,84.81
2023-04-29T23:32:56.529Z,85.34
2023-04-29T23:35:23.706Z,85.64
2023-04-29T23:37:51.126Z,84.69
2023-04-29T23:40:18.269Z,85.15
2023-04-29T23:42:45.474Z,83.83
2023-04-29T23:45:12.897Z,84.70
2023-04-29T23:47:40.066Z,84.75
2023-04-29T23:50:07.763Z,85.63
2023-04-29T23:52:35.273Z,85.46
2023-04-29T23:55:03.541Z,84.65
2023-04-29T23:57:30.688Z,84.15
2023-04-29T23:59:58.145Z,84.41
